Beaconsfield, United Kingdom
Current Conditions -  °F | °C
As of 2:50 PM on Tuesday 21 Oct 2014 (Local Time) from EGWU Reporting Station
Few Clouds Few Clouds  
Wind Chill: 52°   Ceiling: Unl
Heat Index: 52°   Visibility: 6mi
Dew Point: 41°   Wind: 21mph
Humidity: 67%   Direction: 290°WNW
Pressure: 29.77"   Gusts: 32mph
Location:  51.61°N, 0.65°W
Report Text: EGWU 211350Z 29018G28KT 9999 FEW035CB 11/05 Q1008 BLU TEMPO 7000 SHRA WHT
Loading
Personal Weather Stations






























Interactive Weather Map
Tropical Storm Tracking
New forecast layout! Learn more

10-Day Weather Forecast

Advertisements
Track Severe Weather on mobile